sensor_id;sensor_type;location;lat;lon;timestamp;P1;durP1;ratioP1;P2;durP2;ratioP2
11677;SDS011;5895;41.950;24.372;2023-07-31T00:01:33;4.70;;;2.90;;
11677;SDS011;5895;41.950;24.372;2023-07-31T00:04:01;5.00;;;3.13;;
11677;SDS011;5895;41.950;24.372;2023-07-31T00:06:29;5.05;;;2.70;;
11677;SDS011;5895;41.950;24.372;2023-07-31T00:08:56;7.10;;;3.40;;
11677;SDS011;5895;41.950;24.372;2023-07-31T00:11:24;3.58;;;3.08;;
11677;SDS011;5895;41.950;24.372;2023-07-31T00:13:52;4.63;;;2.70;;
11677;SDS011;5895;41.950;24.372;2023-07-31T00:16:20;4.10;;;2.72;;
11677;SDS011;5895;41.950;24.372;2023-07-31T00:18:47;3.63;;;3.08;;
11677;SDS011;5895;41.950;24.372;2023-07-31T00:21:15;10.10;;;3.00;;
11677;SDS011;5895;41.950;24.372;2023-07-31T00:23:43;4.35;;;3.22;;
11677;SDS011;5895;41.950;24.372;2023-07-31T00:26:10;3.83;;;3.25;;
11677;SDS011;5895;41.950;24.372;2023-07-31T00:28:37;5.32;;;2.58;;
11677;SDS011;5895;41.950;24.372;2023-07-31T00:31:05;5.70;;;3.13;;
11677;SDS011;5895;41.950;24.372;2023-07-31T00:33:34;6.22;;;3.45;;
11677;SDS011;5895;41.950;24.372;2023-07-31T00:36:02;3.63;;;2.90;;
11677;SDS011;5895;41.950;24.372;2023-07-31T00:38:29;3.20;;;2.85;;
11677;SDS011;5895;41.950;24.372;2023-07-31T00:40:58;6.57;;;3.10;;
11677;SDS011;5895;41.950;24.372;2023-07-31T00:43:25;3.83;;;3.42;;
11677;SDS011;5895;41.950;24.372;2023-07-31T00:45:52;5.07;;;3.30;;
11677;SDS011;5895;41.950;24.372;2023-07-31T00:48:20;3.53;;;3.22;;
11677;SDS011;5895;41.950;24.372;2023-07-31T00:50:47;4.30;;;3.20;;
11677;SDS011;5895;41.950;24.372;2023-07-31T00:53:14;3.70;;;3.22;;
11677;SDS011;5895;41.950;24.372;2023-07-31T00:55:42;4.00;;;3.10;;
11677;SDS011;5895;41.950;24.372;2023-07-31T00:58:11;4.85;;;3.17;;
11677;SDS011;5895;41.950;24.372;2023-07-31T01:00:38;3.10;;;2.83;;
11677;SDS011;5895;41.950;24.372;2023-07-31T01:03:05;3.70;;;3.28;;
11677;SDS011;5895;41.950;24.372;2023-07-31T01:05:35;3.40;;;3.10;;
11677;SDS011;5895;41.950;24.372;2023-07-31T01:08:12;3.13;;;2.83;;
11677;SDS011;5895;41.950;24.372;2023-07-31T01:10:46;3.55;;;3.08;;
11677;SDS011;5895;41.950;24.372;2023-07-31T01:13:18;4.00;;;2.80;;
11677;SDS011;5895;41.950;24.372;2023-07-31T01:15:46;4.25;;;2.83;;
11677;SDS011;5895;41.950;24.372;2023-07-31T01:18:13;2.97;;;2.67;;
11677;SDS011;5895;41.950;24.372;2023-07-31T01:20:41;2.90;;;2.70;;
11677;SDS011;5895;41.950;24.372;2023-07-31T01:23:19;3.00;;;2.67;;
11677;SDS011;5895;41.950;24.372;2023-07-31T01:26:03;5.15;;;2.80;;
11677;SDS011;5895;41.950;24.372;2023-07-31T01:28:40;3.20;;;2.70;;
11677;SDS011;5895;41.950;24.372;2023-07-31T01:31:15;2.63;;;2.42;;
11677;SDS011;5895;41.950;24.372;2023-07-31T01:33:46;4.18;;;2.40;;
11677;SDS011;5895;41.950;24.372;2023-07-31T01:36:14;3.35;;;2.70;;
11677;SDS011;5895;41.950;24.372;2023-07-31T01:38:42;5.68;;;2.75;;
11677;SDS011;5895;41.950;24.372;2023-07-31T01:41:10;4.72;;;3.28;;
11677;SDS011;5895;41.950;24.372;2023-07-31T01:43:38;3.58;;;2.80;;
11677;SDS011;5895;41.950;24.372;2023-07-31T01:46:05;4.13;;;3.20;;
11677;SDS011;5895;41.950;24.372;2023-07-31T01:48:32;4.65;;;2.60;;
11677;SDS011;5895;41.950;24.372;2023-07-31T01:51:02;4.47;;;3.05;;
11677;SDS011;5895;41.950;24.372;2023-07-31T01:53:29;2.75;;;2.55;;
11677;SDS011;5895;41.950;24.372;2023-07-31T01:55:57;3.10;;;2.83;;
11677;SDS011;5895;41.950;24.372;2023-07-31T01:58:26;7.07;;;2.92;;
11677;SDS011;5895;41.950;24.372;2023-07-31T02:00:53;4.75;;;2.88;;
11677;SDS011;5895;41.950;24.372;2023-07-31T02:03:20;5.28;;;3.03;;
11677;SDS011;5895;41.950;24.372;2023-07-31T02:05:48;4.90;;;3.03;;
11677;SDS011;5895;41.950;24.372;2023-07-31T02:08:16;3.40;;;3.10;;
11677;SDS011;5895;41.950;24.372;2023-07-31T02:10:43;3.40;;;3.10;;
11677;SDS011;5895;41.950;24.372;2023-07-31T02:13:11;6.28;;;2.95;;
11677;SDS011;5895;41.950;24.372;2023-07-31T02:15:39;3.28;;;2.80;;
11677;SDS011;5895;41.950;24.372;2023-07-31T02:18:06;6.55;;;2.80;;
11677;SDS011;5895;41.950;24.372;2023-07-31T02:20:34;2.85;;;2.60;;
11677;SDS011;5895;41.950;24.372;2023-07-31T02:23:01;3.15;;;2.92;;
11677;SDS011;5895;41.950;24.372;2023-07-31T02:25:28;3.00;;;2.70;;
11677;SDS011;5895;41.950;24.372;2023-07-31T02:27:56;3.53;;;3.22;;
11677;SDS011;5895;41.950;24.372;2023-07-31T02:30:23;3.22;;;3.00;;
11677;SDS011;5895;41.950;24.372;2023-07-31T02:32:51;4.88;;;3.10;;
11677;SDS011;5895;41.950;24.372;2023-07-31T02:35:18;3.45;;;3.15;;
11677;SDS011;5895;41.950;24.372;2023-07-31T02:37:45;3.20;;;2.90;;
11677;SDS011;5895;41.950;24.372;2023-07-31T02:40:13;3.15;;;2.85;;
11677;SDS011;5895;41.950;24.372;2023-07-31T02:42:40;3.13;;;2.88;;
11677;SDS011;5895;41.950;24.372;2023-07-31T02:45:08;3.47;;;3.17;;
11677;SDS011;5895;41.950;24.372;2023-07-31T02:47:35;3.50;;;3.20;;
11677;SDS011;5895;41.950;24.372;2023-07-31T02:50:07;3.70;;;3.38;;
11677;SDS011;5895;41.950;24.372;2023-07-31T02:52:35;3.58;;;3.28;;
11677;SDS011;5895;41.950;24.372;2023-07-31T02:55:02;2.92;;;2.70;;
11677;SDS011;5895;41.950;24.372;2023-07-31T02:57:30;3.10;;;2.80;;
11677;SDS011;5895;41.950;24.372;2023-07-31T02:59:57;3.53;;;3.22;;
11677;SDS011;5895;41.950;24.372;2023-07-31T03:02:24;3.38;;;3.08;;
11677;SDS011;5895;41.950;24.372;2023-07-31T03:04:52;3.40;;;3.10;;
11677;SDS011;5895;41.950;24.372;2023-07-31T03:07:20;3.45;;;2.80;;
11677;SDS011;5895;41.950;24.372;2023-07-31T03:09:48;3.28;;;3.03;;
11677;SDS011;5895;41.950;24.372;2023-07-31T03:12:15;2.88;;;2.67;;
11677;SDS011;5895;41.950;24.372;2023-07-31T03:14:42;2.90;;;2.70;;
11677;SDS011;5895;41.950;24.372;2023-07-31T03:17:09;2.80;;;2.60;;
11677;SDS011;5895;41.950;24.372;2023-07-31T03:19:36;3.08;;;2.78;;
11677;SDS011;5895;41.950;24.372;2023-07-31T03:22:04;3.17;;;2.88;;
11677;SDS011;5895;41.950;24.372;2023-07-31T03:24:33;3.60;;;2.80;;
11677;SDS011;5895;41.950;24.372;2023-07-31T03:27:00;4.70;;;4.20;;
11677;SDS011;5895;41.950;24.372;2023-07-31T03:29:27;3.22;;;2.92;;
11677;SDS011;5895;41.950;24.372;2023-07-31T03:31:54;4.10;;;2.92;;
11677;SDS011;5895;41.950;24.372;2023-07-31T03:34:22;4.03;;;3.22;;
11677;SDS011;5895;41.950;24.372;2023-07-31T03:36:49;3.25;;;2.95;;
11677;SDS011;5895;41.950;24.372;2023-07-31T03:39:16;2.95;;;2.72;;
11677;SDS011;5895;41.950;24.372;2023-07-31T03:41:45;3.90;;;2.60;;
11677;SDS011;5895;41.950;24.372;2023-07-31T03:44:12;4.35;;;2.40;;
11677;SDS011;5895;41.950;24.372;2023-07-31T03:46:39;2.90;;;2.60;;
11677;SDS011;5895;41.950;24.372;2023-07-31T03:49:06;2.90;;;2.70;;
11677;SDS011;5895;41.950;24.372;2023-07-31T03:51:34;3.13;;;2.85;;
11677;SDS011;5895;41.950;24.372;2023-07-31T03:54:01;2.92;;;2.70;;
11677;SDS011;5895;41.950;24.372;2023-07-31T03:56:28;3.17;;;2.97;;
11677;SDS011;5895;41.950;24.372;2023-07-31T03:58:57;3.28;;;2.97;;
11677;SDS011;5895;41.950;24.372;2023-07-31T04:01:24;3.33;;;2.55;;
11677;SDS011;5895;41.950;24.372;2023-07-31T04:03:51;2.95;;;2.75;;
11677;SDS011;5895;41.950;24.372;2023-07-31T04:06:18;3.58;;;3.03;;
11677;SDS011;5895;41.950;24.372;2023-07-31T04:08:46;3.20;;;3.00;;
11677;SDS011;5895;41.950;24.372;2023-07-31T04:11:13;3.38;;;3.08;;
11677;SDS011;5895;41.950;24.372;2023-07-31T04:13:40;3.65;;;3.33;;
11677;SDS011;5895;41.950;24.372;2023-07-31T04:16:09;3.20;;;2.90;;
11677;SDS011;5895;41.950;24.372;2023-07-31T04:18:36;3.72;;;3.42;;
11677;SDS011;5895;41.950;24.372;2023-07-31T04:21:04;4.78;;;4.32;;
11677;SDS011;5895;41.950;24.372;2023-07-31T04:23:31;5.53;;;4.97;;
11677;SDS011;5895;41.950;24.372;2023-07-31T04:25:58;7.90;;;6.38;;
11677;SDS011;5895;41.950;24.372;2023-07-31T04:28:25;4.38;;;3.90;;
11677;SDS011;5895;41.950;24.372;2023-07-31T04:30:52;6.60;;;4.00;;
11677;SDS011;5895;41.950;24.372;2023-07-31T04:33:21;4.40;;;4.00;;
11677;SDS011;5895;41.950;24.372;2023-07-31T04:35:49;9.52;;;6.70;;
11677;SDS011;5895;41.950;24.372;2023-07-31T04:38:18;8.65;;;7.38;;
11677;SDS011;5895;41.950;24.372;2023-07-31T04:40:45;8.00;;;7.22;;
11677;SDS011;5895;41.950;24.372;2023-07-31T04:43:12;5.78;;;5.10;;
11677;SDS011;5895;41.950;24.372;2023-07-31T04:45:42;5.38;;;4.88;;
11677;SDS011;5895;41.950;24.372;2023-07-31T04:48:09;5.82;;;4.50;;
11677;SDS011;5895;41.950;24.372;2023-07-31T04:50:38;6.75;;;6.15;;
11677;SDS011;5895;41.950;24.372;2023-07-31T04:53:05;5.85;;;5.32;;
11677;SDS011;5895;41.950;24.372;2023-07-31T04:55:32;5.03;;;4.50;;
11677;SDS011;5895;41.950;24.372;2023-07-31T04:57:59;6.20;;;4.55;;
11677;SDS011;5895;41.950;24.372;2023-07-31T05:00:27;4.65;;;4.32;;
11677;SDS011;5895;41.950;24.372;2023-07-31T05:02:54;5.53;;;5.03;;
11677;SDS011;5895;41.950;24.372;2023-07-31T05:05:21;5.30;;;4.90;;
11677;SDS011;5895;41.950;24.372;2023-07-31T05:07:50;5.30;;;4.88;;
11677;SDS011;5895;41.950;24.372;2023-07-31T05:10:17;5.20;;;4.70;;
11677;SDS011;5895;41.950;24.372;2023-07-31T05:12:45;5.43;;;4.93;;
11677;SDS011;5895;41.950;24.372;2023-07-31T05:15:12;5.55;;;5.10;;
11677;SDS011;5895;41.950;24.372;2023-07-31T05:17:39;5.97;;;5.20;;
11677;SDS011;5895;41.950;24.372;2023-07-31T05:20:07;6.95;;;5.65;;
11677;SDS011;5895;41.950;24.372;2023-07-31T05:22:35;5.28;;;4.88;;
11677;SDS011;5895;41.950;24.372;2023-07-31T05:25:05;5.20;;;4.80;;
11677;SDS011;5895;41.950;24.372;2023-07-31T05:27:32;5.22;;;4.72;;
11677;SDS011;5895;41.950;24.372;2023-07-31T05:30:02;5.32;;;4.38;;
11677;SDS011;5895;41.950;24.372;2023-07-31T05:32:30;5.18;;;4.70;;
11677;SDS011;5895;41.950;24.372;2023-07-31T05:34:57;5.43;;;5.03;;
11677;SDS011;5895;41.950;24.372;2023-07-31T05:37:25;5.97;;;5.47;;
11677;SDS011;5895;41.950;24.372;2023-07-31T05:39:52;6.13;;;5.63;;
11677;SDS011;5895;41.950;24.372;2023-07-31T05:42:21;5.82;;;5.32;;
11677;SDS011;5895;41.950;24.372;2023-07-31T05:44:48;6.95;;;6.45;;
11677;SDS011;5895;41.950;24.372;2023-07-31T05:47:15;7.90;;;7.20;;
11677;SDS011;5895;41.950;24.372;2023-07-31T05:49:43;8.05;;;7.32;;
11677;SDS011;5895;41.950;24.372;2023-07-31T05:52:10;8.48;;;7.78;;
11677;SDS011;5895;41.950;24.372;2023-07-31T05:54:37;8.43;;;7.80;;
11677;SDS011;5895;41.950;24.372;2023-07-31T05:57:05;9.57;;;8.77;;
11677;SDS011;5895;41.950;24.372;2023-07-31T05:59:34;10.23;;;9.43;;
11677;SDS011;5895;41.950;24.372;2023-07-31T06:02:01;10.75;;;9.95;;
11677;SDS011;5895;41.950;24.372;2023-07-31T06:04:29;10.77;;;9.80;;
11677;SDS011;5895;41.950;24.372;2023-07-31T06:06:56;10.43;;;9.57;;
11677;SDS011;5895;41.950;24.372;2023-07-31T06:09:24;9.73;;;8.73;;
11677;SDS011;5895;41.950;24.372;2023-07-31T06:11:51;9.35;;;8.52;;
11677;SDS011;5895;41.950;24.372;2023-07-31T06:14:19;9.13;;;8.25;;
11677;SDS011;5895;41.950;24.372;2023-07-31T06:16:48;9.02;;;8.32;;
11677;SDS011;5895;41.950;24.372;2023-07-31T06:19:17;58.78;;;44.00;;
11677;SDS011;5895;41.950;24.372;2023-07-31T06:21:45;29.27;;;25.80;;
11677;SDS011;5895;41.950;24.372;2023-07-31T06:24:12;508.63;;;311.02;;
11677;SDS011;5895;41.950;24.372;2023-07-31T06:26:44;605.50;;;356.90;;
11677;SDS011;5895;41.950;24.372;2023-07-31T06:29:11;241.90;;;134.55;;
11677;SDS011;5895;41.950;24.372;2023-07-31T06:31:38;295.48;;;168.43;;
11677;SDS011;5895;41.950;24.372;2023-07-31T06:34:09;215.38;;;138.98;;
11677;SDS011;5895;41.950;24.372;2023-07-31T06:36:36;206.60;;;123.28;;
11677;SDS011;5895;41.950;24.372;2023-07-31T06:39:03;392.17;;;236.88;;
11677;SDS011;5895;41.950;24.372;2023-07-31T06:41:31;399.45;;;246.63;;
11677;SDS011;5895;41.950;24.372;2023-07-31T06:43:58;199.32;;;122.78;;
11677;SDS011;5895;41.950;24.372;2023-07-31T06:46:25;57.03;;;40.20;;
11677;SDS011;5895;41.950;24.372;2023-07-31T06:48:53;77.15;;;51.40;;
11677;SDS011;5895;41.950;24.372;2023-07-31T06:51:22;268.58;;;190.20;;
11677;SDS011;5895;41.950;24.372;2023-07-31T06:53:49;203.45;;;109.15;;
11677;SDS011;5895;41.950;24.372;2023-07-31T06:56:16;32.83;;;21.73;;
11677;SDS011;5895;41.950;24.372;2023-07-31T06:58:44;80.97;;;42.78;;
11677;SDS011;5895;41.950;24.372;2023-07-31T07:01:11;401.48;;;198.00;;
11677;SDS011;5895;41.950;24.372;2023-07-31T07:03:38;391.23;;;220.00;;
11677;SDS011;5895;41.950;24.372;2023-07-31T07:06:06;208.23;;;112.93;;
11677;SDS011;5895;41.950;24.372;2023-07-31T07:08:35;82.45;;;49.20;;
11677;SDS011;5895;41.950;24.372;2023-07-31T07:11:02;82.10;;;48.30;;
11677;SDS011;5895;41.950;24.372;2023-07-31T07:13:29;27.20;;;20.55;;
11677;SDS011;5895;41.950;24.372;2023-07-31T07:15:56;37.92;;;27.85;;
11677;SDS011;5895;41.950;24.372;2023-07-31T07:18:24;98.90;;;57.63;;
11677;SDS011;5895;41.950;24.372;2023-07-31T07:20:51;137.15;;;74.00;;
11677;SDS011;5895;41.950;24.372;2023-07-31T07:23:20;65.13;;;42.08;;
11677;SDS011;5895;41.950;24.372;2023-07-31T07:25:49;110.78;;;69.00;;
11677;SDS011;5895;41.950;24.372;2023-07-31T07:28:16;127.55;;;72.28;;
11677;SDS011;5895;41.950;24.372;2023-07-31T07:30:43;27.35;;;21.77;;
11677;SDS011;5895;41.950;24.372;2023-07-31T07:33:11;33.15;;;26.45;;
11677;SDS011;5895;41.950;24.372;2023-07-31T07:35:39;43.75;;;30.85;;
11677;SDS011;5895;41.950;24.372;2023-07-31T07:38:06;26.13;;;20.30;;
11677;SDS011;5895;41.950;24.372;2023-07-31T07:40:34;15.45;;;13.95;;
11677;SDS011;5895;41.950;24.372;2023-07-31T07:43:07;15.93;;;14.23;;
11677;SDS011;5895;41.950;24.372;2023-07-31T07:45:34;21.23;;;19.02;;
11677;SDS011;5895;41.950;24.372;2023-07-31T07:48:02;17.25;;;15.45;;
11677;SDS011;5895;41.950;24.372;2023-07-31T07:50:29;15.73;;;14.20;;
11677;SDS011;5895;41.950;24.372;2023-07-31T07:52:57;17.83;;;15.52;;
11677;SDS011;5895;41.950;24.372;2023-07-31T07:55:24;16.90;;;15.18;;
11677;SDS011;5895;41.950;24.372;2023-07-31T07:57:52;17.75;;;16.15;;
11677;SDS011;5895;41.950;24.372;2023-07-31T08:00:20;17.98;;;16.38;;
11677;SDS011;5895;41.950;24.372;2023-07-31T08:02:48;17.60;;;16.02;;
11677;SDS011;5895;41.950;24.372;2023-07-31T08:05:15;18.60;;;16.80;;
11677;SDS011;5895;41.950;24.372;2023-07-31T08:07:43;17.50;;;15.90;;
11677;SDS011;5895;41.950;24.372;2023-07-31T08:10:10;19.13;;;16.52;;
11677;SDS011;5895;41.950;24.372;2023-07-31T08:12:38;19.48;;;17.75;;
11677;SDS011;5895;41.950;24.372;2023-07-31T08:15:06;18.95;;;17.23;;
11677;SDS011;5895;41.950;24.372;2023-07-31T08:17:35;18.30;;;16.70;;
11677;SDS011;5895;41.950;24.372;2023-07-31T08:20:02;18.65;;;16.92;;
11677;SDS011;5895;41.950;24.372;2023-07-31T08:22:31;19.98;;;18.17;;
11677;SDS011;5895;41.950;24.372;2023-07-31T08:24:58;17.85;;;16.15;;
11677;SDS011;5895;41.950;24.372;2023-07-31T08:27:25;18.90;;;17.08;;
11677;SDS011;5895;41.950;24.372;2023-07-31T08:29:53;21.60;;;19.40;;
11677;SDS011;5895;41.950;24.372;2023-07-31T08:32:20;17.25;;;15.73;;
11677;SDS011;5895;41.950;24.372;2023-07-31T08:34:49;18.95;;;17.27;;
11677;SDS011;5895;41.950;24.372;2023-07-31T08:37:16;20.33;;;18.23;;
11677;SDS011;5895;41.950;24.372;2023-07-31T08:39:43;21.23;;;19.13;;
11677;SDS011;5895;41.950;24.372;2023-07-31T08:42:10;20.75;;;18.75;;
11677;SDS011;5895;41.950;24.372;2023-07-31T08:44:39;18.20;;;16.50;;
11677;SDS011;5895;41.950;24.372;2023-07-31T08:47:06;17.15;;;15.65;;
11677;SDS011;5895;41.950;24.372;2023-07-31T08:49:34;15.60;;;14.20;;
11677;SDS011;5895;41.950;24.372;2023-07-31T08:52:05;17.65;;;16.05;;
11677;SDS011;5895;41.950;24.372;2023-07-31T08:54:34;22.88;;;20.67;;
11677;SDS011;5895;41.950;24.372;2023-07-31T08:57:01;24.40;;;21.58;;
11677;SDS011;5895;41.950;24.372;2023-07-31T08:59:30;31.50;;;26.75;;
11677;SDS011;5895;41.950;24.372;2023-07-31T09:02:06;36.28;;;27.45;;
11677;SDS011;5895;41.950;24.372;2023-07-31T09:04:35;19.05;;;16.52;;
11677;SDS011;5895;41.950;24.372;2023-07-31T09:07:02;13.73;;;12.38;;
11677;SDS011;5895;41.950;24.372;2023-07-31T09:09:34;12.10;;;10.95;;
11677;SDS011;5895;41.950;24.372;2023-07-31T09:12:02;22.65;;;19.60;;
11677;SDS011;5895;41.950;24.372;2023-07-31T09:14:30;34.72;;;25.70;;
11677;SDS011;5895;41.950;24.372;2023-07-31T09:16:59;24.98;;;21.70;;
11677;SDS011;5895;41.950;24.372;2023-07-31T09:19:26;11.32;;;10.32;;
11677;SDS011;5895;41.950;24.372;2023-07-31T09:21:56;15.10;;;13.60;;
11677;SDS011;5895;41.950;24.372;2023-07-31T09:24:29;12.23;;;11.00;;
11677;SDS011;5895;41.950;24.372;2023-07-31T09:26:58;12.82;;;11.68;;
11677;SDS011;5895;41.950;24.372;2023-07-31T09:29:26;16.42;;;13.40;;
11677;SDS011;5895;41.950;24.372;2023-07-31T09:31:54;14.13;;;12.75;;
11677;SDS011;5895;41.950;24.372;2023-07-31T09:34:28;14.05;;;12.60;;
11677;SDS011;5895;41.950;24.372;2023-07-31T09:37:02;12.57;;;11.43;;
11677;SDS011;5895;41.950;24.372;2023-07-31T09:39:30;11.63;;;10.52;;
11677;SDS011;5895;41.950;24.372;2023-07-31T09:41:58;9.75;;;8.85;;
11677;SDS011;5895;41.950;24.372;2023-07-31T09:44:37;11.65;;;10.63;;
11677;SDS011;5895;41.950;24.372;2023-07-31T09:47:06;10.43;;;9.52;;
11677;SDS011;5895;41.950;24.372;2023-07-31T09:49:33;10.93;;;10.00;;
11677;SDS011;5895;41.950;24.372;2023-07-31T09:52:00;10.95;;;10.02;;
11677;SDS011;5895;41.950;24.372;2023-07-31T09:54:27;10.52;;;9.63;;
11677;SDS011;5895;41.950;24.372;2023-07-31T09:56:56;10.35;;;9.35;;
11677;SDS011;5895;41.950;24.372;2023-07-31T09:59:25;8.60;;;7.90;;
11677;SDS011;5895;41.950;24.372;2023-07-31T10:01:53;8.48;;;7.78;;
11677;SDS011;5895;41.950;24.372;2023-07-31T10:04:24;10.23;;;9.30;;
11677;SDS011;5895;41.950;24.372;2023-07-31T10:06:54;9.20;;;8.35;;
11677;SDS011;5895;41.950;24.372;2023-07-31T10:09:22;8.50;;;7.70;;
11677;SDS011;5895;41.950;24.372;2023-07-31T10:11:53;9.02;;;8.23;;
11677;SDS011;5895;41.950;24.372;2023-07-31T10:14:26;8.55;;;7.68;;
11677;SDS011;5895;41.950;24.372;2023-07-31T10:16:54;8.38;;;7.68;;
11677;SDS011;5895;41.950;24.372;2023-07-31T10:19:24;9.45;;;8.38;;
11677;SDS011;5895;41.950;24.372;2023-07-31T10:21:53;8.15;;;7.45;;
11677;SDS011;5895;41.950;24.372;2023-07-31T10:24:22;9.13;;;8.23;;
11677;SDS011;5895;41.950;24.372;2023-07-31T10:26:52;8.50;;;7.70;;
11677;SDS011;5895;41.950;24.372;2023-07-31T10:29:24;7.50;;;6.90;;
11677;SDS011;5895;41.950;24.372;2023-07-31T10:31:52;7.65;;;6.80;;
11677;SDS011;5895;41.950;24.372;2023-07-31T10:34:22;8.07;;;7.28;;
11677;SDS011;5895;41.950;24.372;2023-07-31T10:36:50;7.85;;;7.15;;
11677;SDS011;5895;41.950;24.372;2023-07-31T10:42:11;8.02;;;7.35;;
11677;SDS011;5895;41.950;24.372;2023-07-31T10:44:46;7.00;;;6.30;;
11677;SDS011;5895;41.950;24.372;2023-07-31T10:47:14;6.60;;;6.00;;
11677;SDS011;5895;41.950;24.372;2023-07-31T10:49:44;6.53;;;5.93;;
11677;SDS011;5895;41.950;24.372;2023-07-31T10:52:13;6.40;;;5.90;;
11677;SDS011;5895;41.950;24.372;2023-07-31T10:54:40;6.50;;;5.70;;
11677;SDS011;5895;41.950;24.372;2023-07-31T10:57:18;6.22;;;5.60;;
11677;SDS011;5895;41.950;24.372;2023-07-31T10:59:48;6.75;;;5.88;;
11677;SDS011;5895;41.950;24.372;2023-07-31T11:02:25;6.43;;;5.88;;
11677;SDS011;5895;41.950;24.372;2023-07-31T11:05:07;5.88;;;5.38;;
11677;SDS011;5895;41.950;24.372;2023-07-31T11:07:47;6.43;;;5.93;;
11677;SDS011;5895;41.950;24.372;2023-07-31T11:10:18;6.32;;;5.82;;
11677;SDS011;5895;41.950;24.372;2023-07-31T11:12:46;6.00;;;5.50;;
11677;SDS011;5895;41.950;24.372;2023-07-31T11:15:15;5.72;;;5.22;;
11677;SDS011;5895;41.950;24.372;2023-07-31T11:17:42;5.82;;;5.22;;
11677;SDS011;5895;41.950;24.372;2023-07-31T11:20:10;5.28;;;4.85;;
11677;SDS011;5895;41.950;24.372;2023-07-31T11:22:37;5.20;;;4.80;;
11677;SDS011;5895;41.950;24.372;2023-07-31T11:25:05;5.40;;;5.00;;
11677;SDS011;5895;41.950;24.372;2023-07-31T11:27:38;5.25;;;4.75;;
11677;SDS011;5895;41.950;24.372;2023-07-31T11:30:09;4.93;;;4.53;;
11677;SDS011;5895;41.950;24.372;2023-07-31T11:32:38;5.85;;;5.13;;
11677;SDS011;5895;41.950;24.372;2023-07-31T11:35:06;5.10;;;4.70;;
11677;SDS011;5895;41.950;24.372;2023-07-31T11:37:40;5.30;;;4.80;;
11677;SDS011;5895;41.950;24.372;2023-07-31T11:40:08;6.05;;;4.75;;
11677;SDS011;5895;41.950;24.372;2023-07-31T11:42:36;4.60;;;4.13;;
11677;SDS011;5895;41.950;24.372;2023-07-31T11:45:04;4.65;;;4.25;;
11677;SDS011;5895;41.950;24.372;2023-07-31T11:47:32;4.68;;;4.28;;
11677;SDS011;5895;41.950;24.372;2023-07-31T11:50:02;5.05;;;3.90;;
11677;SDS011;5895;41.950;24.372;2023-07-31T11:52:32;4.72;;;4.00;;
11677;SDS011;5895;41.950;24.372;2023-07-31T11:55:03;4.00;;;3.70;;
11677;SDS011;5895;41.950;24.372;2023-07-31T11:57:32;4.32;;;3.85;;
11677;SDS011;5895;41.950;24.372;2023-07-31T12:00:00;5.60;;;3.60;;
11677;SDS011;5895;41.950;24.372;2023-07-31T12:02:28;5.13;;;3.97;;
11677;SDS011;5895;41.950;24.372;2023-07-31T12:04:55;5.05;;;3.65;;
11677;SDS011;5895;41.950;24.372;2023-07-31T12:07:25;4.22;;;3.78;;
11677;SDS011;5895;41.950;24.372;2023-07-31T12:09:52;3.97;;;3.65;;
11677;SDS011;5895;41.950;24.372;2023-07-31T12:12:20;3.90;;;3.50;;
11677;SDS011;5895;41.950;24.372;2023-07-31T12:14:48;5.47;;;3.78;;
11677;SDS011;5895;41.950;24.372;2023-07-31T12:17:17;4.22;;;3.83;;
11677;SDS011;5895;41.950;24.372;2023-07-31T12:19:48;3.90;;;3.50;;
11677;SDS011;5895;41.950;24.372;2023-07-31T12:22:15;3.78;;;3.47;;
11677;SDS011;5895;41.950;24.372;2023-07-31T12:24:44;4.07;;;3.78;;
11677;SDS011;5895;41.950;24.372;2023-07-31T12:27:12;4.03;;;3.72;;
11677;SDS011;5895;41.950;24.372;2023-07-31T12:29:41;4.10;;;3.70;;
11677;SDS011;5895;41.950;24.372;2023-07-31T12:32:19;4.25;;;3.65;;
11677;SDS011;5895;41.950;24.372;2023-07-31T12:34:47;4.55;;;3.72;;
11677;SDS011;5895;41.950;24.372;2023-07-31T12:37:15;3.80;;;3.50;;
11677;SDS011;5895;41.950;24.372;2023-07-31T12:39:42;3.67;;;3.33;;
11677;SDS011;5895;41.950;24.372;2023-07-31T12:42:11;4.47;;;3.20;;
11677;SDS011;5895;41.950;24.372;2023-07-31T12:44:39;3.67;;;3.38;;
11677;SDS011;5895;41.950;24.372;2023-07-31T12:47:06;4.70;;;3.40;;
11677;SDS011;5895;41.950;24.372;2023-07-31T12:49:33;4.20;;;3.80;;
11677;SDS011;5895;41.950;24.372;2023-07-31T12:52:00;3.35;;;3.05;;
11677;SDS011;5895;41.950;24.372;2023-07-31T12:54:28;5.00;;;3.30;;
11677;SDS011;5895;41.950;24.372;2023-07-31T12:56:56;3.67;;;3.30;;
11677;SDS011;5895;41.950;24.372;2023-07-31T12:59:24;3.63;;;3.20;;
11677;SDS011;5895;41.950;24.372;2023-07-31T13:01:51;3.75;;;3.45;;
11677;SDS011;5895;41.950;24.372;2023-07-31T13:04:18;5.28;;;3.13;;
11677;SDS011;5895;41.950;24.372;2023-07-31T13:06:46;3.67;;;3.38;;
11677;SDS011;5895;41.950;24.372;2023-07-31T13:09:14;5.28;;;3.47;;
11677;SDS011;5895;41.950;24.372;2023-07-31T13:11:43;3.45;;;3.15;;
11677;SDS011;5895;41.950;24.372;2023-07-31T13:14:11;4.00;;;3.65;;
11677;SDS011;5895;41.950;24.372;2023-07-31T13:16:39;4.25;;;3.85;;
11677;SDS011;5895;41.950;24.372;2023-07-31T13:19:06;3.97;;;3.58;;
11677;SDS011;5895;41.950;24.372;2023-07-31T13:21:33;5.80;;;3.50;;
11677;SDS011;5895;41.950;24.372;2023-07-31T13:24:01;4.15;;;3.55;;
11677;SDS011;5895;41.950;24.372;2023-07-31T13:26:29;4.40;;;3.40;;
11677;SDS011;5895;41.950;24.372;2023-07-31T13:28:57;3.30;;;3.00;;
11677;SDS011;5895;41.950;24.372;2023-07-31T13:31:25;3.67;;;3.10;;
11677;SDS011;5895;41.950;24.372;2023-07-31T13:33:53;3.67;;;3.38;;
11677;SDS011;5895;41.950;24.372;2023-07-31T13:36:20;12.32;;;3.58;;
11677;SDS011;5895;41.950;24.372;2023-07-31T13:38:47;3.60;;;3.30;;
11677;SDS011;5895;41.950;24.372;2023-07-31T13:41:15;6.93;;;3.60;;
11677;SDS011;5895;41.950;24.372;2023-07-31T13:43:42;4.38;;;3.63;;
11677;SDS011;5895;41.950;24.372;2023-07-31T13:46:08;3.60;;;3.30;;
11677;SDS011;5895;41.950;24.372;2023-07-31T13:48:37;3.45;;;3.15;;
11677;SDS011;5895;41.950;24.372;2023-07-31T13:51:05;3.60;;;3.30;;
11677;SDS011;5895;41.950;24.372;2023-07-31T13:53:32;3.60;;;3.30;;
11677;SDS011;5895;41.950;24.372;2023-07-31T13:55:59;3.20;;;2.90;;
11677;SDS011;5895;41.950;24.372;2023-07-31T13:58:26;4.03;;;3.05;;
11677;SDS011;5895;41.950;24.372;2023-07-31T14:00:54;3.55;;;3.08;;
11677;SDS011;5895;41.950;24.372;2023-07-31T14:03:21;3.70;;;3.35;;
11677;SDS011;5895;41.950;24.372;2023-07-31T14:05:51;5.05;;;3.30;;
11677;SDS011;5895;41.950;24.372;2023-07-31T14:08:19;4.68;;;3.13;;
11677;SDS011;5895;41.950;24.372;2023-07-31T14:10:46;3.28;;;2.97;;
11677;SDS011;5895;41.950;24.372;2023-07-31T14:13:13;3.03;;;2.72;;
11677;SDS011;5895;41.950;24.372;2023-07-31T14:15:41;3.65;;;3.13;;
11677;SDS011;5895;41.950;24.372;2023-07-31T14:18:09;3.95;;;2.80;;
11677;SDS011;5895;41.950;24.372;2023-07-31T14:20:36;2.90;;;2.70;;
11677;SDS011;5895;41.950;24.372;2023-07-31T14:23:05;4.22;;;2.70;;
11677;SDS011;5895;41.950;24.372;2023-07-31T14:25:33;3.25;;;2.92;;
11677;SDS011;5895;41.950;24.372;2023-07-31T14:28:00;3.95;;;2.75;;
11677;SDS011;5895;41.950;24.372;2023-07-31T14:30:27;3.08;;;2.75;;
11677;SDS011;5895;41.950;24.372;2023-07-31T14:32:55;2.80;;;2.35;;
11677;SDS011;5895;41.950;24.372;2023-07-31T14:35:22;2.90;;;2.70;;
11677;SDS011;5895;41.950;24.372;2023-07-31T14:37:49;2.67;;;2.47;;
11677;SDS011;5895;41.950;24.372;2023-07-31T14:40:18;2.83;;;2.58;;
11677;SDS011;5895;41.950;24.372;2023-07-31T14:42:46;2.60;;;2.40;;
11677;SDS011;5895;41.950;24.372;2023-07-31T14:45:13;2.80;;;2.60;;
11677;SDS011;5895;41.950;24.372;2023-07-31T14:47:41;3.28;;;3.00;;
11677;SDS011;5895;41.950;24.372;2023-07-31T14:50:08;4.07;;;2.50;;